Time;durP1;ratioP1;P1;durP2;ratioP2;P2;SDS_P1;SDS_P2;PMS_P1;PMS_P2;Temp;Humidity;BMP_temperature;BMP_pressure;BME280_temperature;BME280_humidity;BME280_pressure;Samples;Min_cycle;Max_cycle;Signal;HPM_P1;HPM_P2
2022/09/17 00:01:37;;;;;;;;;;;;;;;;;;5094339;28;19985;-53
2022/09/17 00:04:05;;;;;;;;;;;;;;;;;;5094778;28;20022;-54
2022/09/17 00:06:37;;;;;;;;;;;;;;;;;;5094810;28;19955;-54
2022/09/17 00:09:06;;;;;;;;;;;;;;;;;;5094382;28;20078;-54
2022/09/17 00:11:34;;;;;;;;;;;;;;;;;;5094505;28;20014;-51
2022/09/17 00:14:04;;;;;;;;;;;;;;;;;;5094573;28;19971;-54
2022/09/17 00:16:33;;;;;;;;;;;;;;;;;;5094506;28;19924;-54
2022/09/17 00:19:02;;;;;;;;;;;;;;;;;;5094575;28;19931;-54
2022/09/17 00:21:30;;;;;;;;;;;;;;;;;;5093205;28;19981;-54
2022/09/17 00:23:59;;;;;;;;;;;;;;;;;;5093936;28;19974;-52
2022/09/17 00:26:27;;;;;;;;;;;;;;;;;;5094238;28;20011;-54
2022/09/17 00:28:56;;;;;;;;;;;;;;;;;;5093825;28;19932;-54
2022/09/17 00:31:24;;;;;;;;;;;;;;;;;;5093957;28;19924;-53
2022/09/17 00:33:52;;;;;;;;;;;;;;;;;;5093986;28;19928;-54
2022/09/17 00:36:19;;;;;;;;;;;;;;;;;;5093955;28;20400;-52
2022/09/17 00:38:51;;;;;;;;;;;;;;;;;;5093670;28;20414;-54
2022/09/17 00:41:19;;;;;;;;;;;;;;;;;;5093723;28;20284;-53
2022/09/17 00:43:49;;;;;;;;;;;;;;;;;;5092405;28;19993;-53
2022/09/17 00:46:32;;;;;;;;;;;;;;;;;;5093650;28;19939;-54
2022/09/17 00:49:05;;;;;;;;;;;;;;;;;;5093669;28;19928;-54
2022/09/17 00:51:35;;;;;;;;;;;;;;;;;;5093634;28;19924;-54
2022/09/17 00:54:05;;;;;;;;;;;;;;;;;;5093793;28;19935;-53
2022/09/17 00:56:34;;;;;;;;;;;;;;;;;;5093815;28;19931;-54
2022/09/17 00:59:02;;;;;;;;;;;;;;;;;;5093690;28;19931;-54
2022/09/17 01:01:30;;;;;;;;;;;;;;;;;;5093484;28;19952;-51
2022/09/17 01:03:58;;;;;;;;;;;;;;;;;;5093151;28;19931;-54
2022/09/17 01:06:35;;;;;;;;;;;;;;;;;;5093286;28;20141;-54
2022/09/17 01:09:29;;;;;;;;;;;;;;;;;;5093246;28;19969;-54
2022/09/17 01:11:56;;;;;;;;;;;;;;;;;;5076656;28;19928;-53
2022/09/17 01:14:42;;;;;;;;;;;;;;;;;;5093261;28;20291;-52
2022/09/17 01:17:26;;;;;;;;;;;;;;;;;;5093157;28;20422;-54
2022/09/17 01:19:54;;;;;;;;;;;;;;;;;;5093255;28;19954;-54
2022/09/17 01:22:40;;;;;;;;;;;;;;;;;;5092647;28;19946;-54
2022/09/17 01:25:17;;;;;;;;;;;;;;;;;;5090300;28;19924;-53
2022/09/17 01:27:50;;;;;;;;;;;;;;;;;;5091491;28;19924;-53
2022/09/17 01:30:37;;;;;;;;;;;;;;;;;;5091256;28;19924;-51
2022/09/17 01:33:20;;;;;;;;;;;;;;;;;;5090001;28;19956;-53
2022/09/17 01:35:52;;;;;;;;;;;;;;;;;;5091357;28;19928;-52
2022/09/17 01:38:38;;;;;;;;;;;;;;;;;;5091315;28;19924;-54
2022/09/17 01:41:15;;;;;;;;;;;;;;;;;;5091292;28;20010;-47
2022/09/17 01:43:58;;;;;;;;;;;;;;;;;;5091164;28;20349;-54
2022/09/17 01:46:35;;;;;;;;;;;;;;;;;;5091290;28;19935;-53
2022/09/17 01:49:05;;;;;;;;;;;;;;;;;;5091340;28;19923;-54
2022/09/17 01:51:40;;;;;;;;;;;;;;;;;;5091292;28;19939;-53
2022/09/17 01:54:19;;;;;;;;;;;;;;;;;;5091024;28;19924;-55
2022/09/17 01:57:00;;;;;;;;;;;;;;;;;;5090997;28;19924;-54
2022/09/17 01:59:41;;;;;;;;;;;;;;;;;;5091033;28;20594;-54
2022/09/17 02:02:17;;;;;;;;;;;;;;;;;;5090972;28;20306;-53
2022/09/17 02:04:48;;;;;;;;;;;;;;;;;;5090807;28;20306;-53
2022/09/17 02:07:21;;;;;;;;;;;;;;;;;;5083627;28;19960;-55
2022/09/17 02:09:52;;;;;;;;;;;;;;;;;;5070559;28;19931;-54
2022/09/17 02:12:23;;;;;;;;;;;;;;;;;;5070465;28;20295;-54
2022/09/17 02:14:52;;;;;;;;;;;;;;;;;;5070671;28;20438;-45
2022/09/17 02:17:23;;;;;;;;;;;;;;;;;;5070633;28;19959;-49
2022/09/17 02:19:52;;;;;;;;;;;;;;;;;;5070691;28;19974;-55
2022/09/17 02:22:19;;;;;;;;;;;;;;;;;;5072470;28;19924;-52
2022/09/17 02:25:05;;;;;;;;;;;;;;;;;;5074820;28;20335;-54
2022/09/17 02:28:02;;;;;;;;;;;;;;;;;;5074658;28;19967;-53
2022/09/17 02:30:30;;;;;;;;;;;;;;;;;;5075222;28;19924;-53
2022/09/17 02:32:59;;;;;;;;;;;;;;;;;;5094628;28;20384;-49
2022/09/17 02:35:26;;;;;;;;;;;;;;;;;;5094673;28;19928;-46
2022/09/17 02:37:53;;;;;;;;;;;;;;;;;;5094598;28;19924;-45
2022/09/17 02:40:23;;;;;;;;;;;;;;;;;;5094652;28;19977;-49
2022/09/17 02:42:55;;;;;;;;;;;;;;;;;;5094628;28;20007;-54
2022/09/17 02:45:39;;;;;;;;;;;;;;;;;;5094691;28;20383;-49
2022/09/17 02:48:16;;;;;;;;;;;;;;;;;;5094561;28;20294;-51
2022/09/17 02:50:59;;;;;;;;;;;;;;;;;;5094297;28;20018;-48
2022/09/17 02:53:29;;;;;;;;;;;;;;;;;;5094421;28;20229;-48
2022/09/17 02:56:06;;;;;;;;;;;;;;;;;;5094137;28;20784;-48
2022/09/17 02:58:40;;;;;;;;;;;;;;;;;;5094552;28;19928;-50
2022/09/17 03:01:11;;;;;;;;;;;;;;;;;;5094167;28;19928;-47
2022/09/17 03:03:40;;;;;;;;;;;;;;;;;;5094384;28;19924;-51
2022/09/17 03:06:07;;;;;;;;;;;;;;;;;;5094089;28;19932;-46
2022/09/17 03:08:39;;;;;;;;;;;;;;;;;;5094144;28;19970;-51
2022/09/17 03:11:09;;;;;;;;;;;;;;;;;;5094131;28;20403;-51
2022/09/17 03:13:36;;;;;;;;;;;;;;;;;;5094073;28;20043;-44
2022/09/17 03:16:05;;;;;;;;;;;;;;;;;;5094152;28;19924;-51
2022/09/17 03:18:32;;;;;;;;;;;;;;;;;;5094197;28;19924;-50
2022/09/17 03:20:59;;;;;;;;;;;;;;;;;;5093941;28;19931;-50
2022/09/17 03:23:27;;;;;;;;;;;;;;;;;;5093966;28;19932;-52
2022/09/17 03:25:55;;;;;;;;;;;;;;;;;;5092757;28;19931;-52
2022/09/17 03:28:24;;;;;;;;;;;;;;;;;;5093662;28;20446;-48
2022/09/17 03:30:52;;;;;;;;;;;;;;;;;;5093598;28;19931;-53
2022/09/17 03:33:19;;;;;;;;;;;;;;;;;;5092884;28;19928;-53
2022/09/17 03:35:46;;;;;;;;;;;;;;;;;;5093624;28;20429;-51
2022/09/17 03:38:13;;;;;;;;;;;;;;;;;;5093672;28;19970;-48
2022/09/17 03:40:41;;;;;;;;;;;;;;;;;;5093600;28;20456;-50
2022/09/17 03:43:08;;;;;;;;;;;;;;;;;;5093509;28;19931;-54
2022/09/17 03:45:35;;;;;;;;;;;;;;;;;;5093672;28;19924;-52
2022/09/17 03:48:03;;;;;;;;;;;;;;;;;;5093530;28;19974;-51
2022/09/17 03:50:30;;;;;;;;;;;;;;;;;;5093415;28;19924;-46
2022/09/17 03:52:58;;;;;;;;;;;;;;;;;;5093095;28;19924;-49
2022/09/17 03:55:25;;;;;;;;;;;;;;;;;;5093117;28;19946;-51
2022/09/17 03:57:52;;;;;;;;;;;;;;;;;;5093260;28;19970;-50
2022/09/17 04:00:19;;;;;;;;;;;;;;;;;;5093191;28;19924;-46
2022/09/17 04:02:46;;;;;;;;;;;;;;;;;;5091958;28;19928;-52
2022/09/17 04:05:13;;;;;;;;;;;;;;;;;;5093115;28;20338;-54
2022/09/17 04:07:41;;;;;;;;;;;;;;;;;;5091687;28;19924;-53
2022/09/17 04:10:08;;;;;;;;;;;;;;;;;;5092707;28;19947;-50
2022/09/17 04:12:36;;;;;;;;;;;;;;;;;;5092603;28;19941;-47
2022/09/17 04:15:03;;;;;;;;;;;;;;;;;;5093127;28;19981;-52
2022/09/17 04:17:30;;;;;;;;;;;;;;;;;;5092759;28;19960;-48
2022/09/17 04:19:58;;;;;;;;;;;;;;;;;;5092893;28;19924;-54
2022/09/17 04:22:27;;;;;;;;;;;;;;;;;;5092740;28;20431;-47
2022/09/17 04:24:54;;;;;;;;;;;;;;;;;;5092518;28;21851;-51
2022/09/17 04:27:21;;;;;;;;;;;;;;;;;;5092678;28;19924;-54
2022/09/17 04:29:48;;;;;;;;;;;;;;;;;;5092381;28;20339;-53
2022/09/17 04:32:16;;;;;;;;;;;;;;;;;;5092288;28;19931;-55
2022/09/17 04:34:43;;;;;;;;;;;;;;;;;;5092132;28;19928;-50
2022/09/17 04:37:10;;;;;;;;;;;;;;;;;;5092408;28;19924;-50
2022/09/17 04:39:37;;;;;;;;;;;;;;;;;;5092472;28;19924;-50
2022/09/17 04:42:05;;;;;;;;;;;;;;;;;;5092354;28;19924;-51
2022/09/17 04:44:32;;;;;;;;;;;;;;;;;;5092086;28;20379;-50
2022/09/17 04:46:59;;;;;;;;;;;;;;;;;;5091341;28;19928;-50
2022/09/17 04:49:28;;;;;;;;;;;;;;;;;;5092080;28;20280;-53
2022/09/17 04:51:55;;;;;;;;;;;;;;;;;;5092066;28;19924;-52
2022/09/17 04:54:23;;;;;;;;;;;;;;;;;;5091897;28;19928;-52
2022/09/17 04:56:50;;;;;;;;;;;;;;;;;;5091869;28;19924;-54
2022/09/17 04:59:17;;;;;;;;;;;;;;;;;;5092040;28;19925;-54
2022/09/17 05:01:44;;;;;;;;;;;;;;;;;;5091904;28;19924;-51
2022/09/17 05:04:12;;;;;;;;;;;;;;;;;;5091854;28;20337;-50
2022/09/17 05:06:39;;;;;;;;;;;;;;;;;;5092181;28;19924;-43
2022/09/17 05:09:06;;;;;;;;;;;;;;;;;;5091604;28;19924;-51
2022/09/17 05:11:33;;;;;;;;;;;;;;;;;;5091624;28;19928;-52
2022/09/17 05:14:01;;;;;;;;;;;;;;;;;;5091501;28;19970;-48
2022/09/17 05:16:28;;;;;;;;;;;;;;;;;;5091762;28;20330;-52
2022/09/17 05:18:56;;;;;;;;;;;;;;;;;;5091580;28;19986;-52
2022/09/17 05:21:24;;;;;;;;;;;;;;;;;;5091598;28;20366;-50
2022/09/17 05:23:51;;;;;;;;;;;;;;;;;;5091638;28;20402;-52
2022/09/17 05:26:18;;;;;;;;;;;;;;;;;;5091295;28;19982;-50
2022/09/17 05:28:45;;;;;;;;;;;;;;;;;;5091427;28;19924;-52
2022/09/17 05:31:13;;;;;;;;;;;;;;;;;;5091525;28;19973;-48
2022/09/17 05:33:40;;;;;;;;;;;;;;;;;;5091415;28;20348;-43
2022/09/17 05:36:07;;;;;;;;;;;;;;;;;;5091586;28;20284;-51
2022/09/17 05:38:34;;;;;;;;;;;;;;;;;;5091291;28;19924;-47
2022/09/17 05:41:05;;;;;;;;;;;;;;;;;;5091192;28;19924;-51
2022/09/17 05:43:33;;;;;;;;;;;;;;;;;;5090526;28;19928;-45
2022/09/17 05:46:04;;;;;;;;;;;;;;;;;;5091359;28;19930;-52
2022/09/17 05:48:32;;;;;;;;;;;;;;;;;;5091161;28;20023;-51
2022/09/17 05:50:59;;;;;;;;;;;;;;;;;;5091333;28;19928;-50
2022/09/17 05:53:26;;;;;;;;;;;;;;;;;;5106747;28;20391;-54
2022/09/17 05:55:57;;;;;;;;;;;;;;;;;;5090793;28;19935;-52
2022/09/17 05:58:24;;;;;;;;;;;;;;;;;;5090752;28;19935;-50
2022/09/17 06:00:52;;;;;;;;;;;;;;;;;;5091095;28;20435;-48
2022/09/17 06:03:21;;;;;;;;;;;;;;;;;;5091019;28;20024;-52
2022/09/17 06:05:58;;;;;;;;;;;;;;;;;;5091047;28;19977;-52
2022/09/17 06:08:26;;;;;;;;;;;;;;;;;;5090634;28;19932;-54
2022/09/17 06:10:53;;;;;;;;;;;;;;;;;;5091079;28;19932;-51
2022/09/17 06:13:24;;;;;;;;;;;;;;;;;;5090607;28;19943;-54
2022/09/17 06:15:52;;;;;;;;;;;;;;;;;;5090991;28;19924;-50
2022/09/17 06:18:20;;;;;;;;;;;;;;;;;;5090765;28;19924;-47
2022/09/17 06:20:54;;;;;;;;;;;;;;;;;;5090415;28;20300;-46
2022/09/17 06:23:21;;;;;;;;;;;;;;;;;;5090792;28;19932;-53
2022/09/17 06:25:58;;;;;;;;;;;;;;;;;;5090823;28;19971;-53
2022/09/17 06:28:26;;;;;;;;;;;;;;;;;;5090672;28;20011;-54
2022/09/17 06:30:55;;;;;;;;;;;;;;;;;;5090686;28;19924;-52
2022/09/17 06:33:23;;;;;;;;;;;;;;;;;;5090500;28;19924;-53
2022/09/17 06:36:01;;;;;;;;;;;;;;;;;;5090434;28;20383;-54
2022/09/17 06:38:29;;;;;;;;;;;;;;;;;;5090630;28;19925;-52
2022/09/17 06:40:57;;;;;;;;;;;;;;;;;;5090549;28;20288;-53
2022/09/17 06:43:24;;;;;;;;;;;;;;;;;;5090699;28;19932;-54
2022/09/17 06:45:58;;;;;;;;;;;;;;;;;;5090308;28;19924;-52
2022/09/17 06:48:26;;;;;;;;;;;;;;;;;;5090571;28;19928;-52
2022/09/17 06:50:54;;;;;;;;;;;;;;;;;;5090741;28;20508;-53
2022/09/17 06:53:22;;;;;;;;;;;;;;;;;;5090450;28;19924;-54
2022/09/17 06:55:49;;;;;;;;;;;;;;;;;;5090497;28;20348;-52
2022/09/17 06:58:17;;;;;;;;;;;;;;;;;;5090279;28;20315;-47
2022/09/17 07:00:44;;;;;;;;;;;;;;;;;;5090698;28;19928;-47
2022/09/17 07:03:11;;;;;;;;;;;;;;;;;;5090816;28;19930;-52
2022/09/17 07:05:38;;;;;;;;;;;;;;;;;;5090298;28;19931;-53
2022/09/17 07:08:06;;;;;;;;;;;;;;;;;;5090354;28;20434;-51
2022/09/17 07:10:33;;;;;;;;;;;;;;;;;;5093572;28;19928;-48
2022/09/17 07:13:00;;;;;;;;;;;;;;;;;;5089734;28;19968;-41
2022/09/17 07:15:28;;;;;;;;;;;;;;;;;;5073753;28;19924;-49
2022/09/17 07:17:55;;;;;;;;;;;;;;;;;;5073498;28;19925;-48
2022/09/17 07:20:22;;;;;;;;;;;;;;;;;;5073770;28;19997;-55
2022/09/17 07:22:56;;;;;;;;;;;;;;;;;;5073868;28;19971;-47
2022/09/17 07:25:25;;;;;;;;;;;;;;;;;;5073437;28;19947;-43
2022/09/17 07:27:53;;;;;;;;;;;;;;;;;;5073366;28;19937;-50
2022/09/17 07:30:20;;;;;;;;;;;;;;;;;;5081036;28;19924;-47
2022/09/17 07:32:47;;;;;;;;;;;;;;;;;;5093650;28;19935;-44
2022/09/17 07:35:14;;;;;;;;;;;;;;;;;;5093665;28;20390;-52
2022/09/17 07:37:41;;;;;;;;;;;;;;;;;;5093663;28;19924;-48
2022/09/17 07:40:09;;;;;;;;;;;;;;;;;;5093343;28;19946;-53
2022/09/17 07:42:36;;;;;;;;;;;;;;;;;;5093575;28;19924;-53
2022/09/17 07:45:06;;;;;;;;;;;;;;;;;;5093207;28;19959;-51
2022/09/17 07:47:37;;;;;;;;;;;;;;;;;;5093286;28;20216;-54
2022/09/17 07:50:05;;;;;;;;;;;;;;;;;;5093407;28;20014;-49
2022/09/17 07:52:32;;;;;;;;;;;;;;;;;;5092936;28;20352;-50
2022/09/17 07:55:00;;;;;;;;;;;;;;;;;;5093165;28;19968;-51
2022/09/17 07:57:27;;;;;;;;;;;;;;;;;;5093362;28;20459;-52
2022/09/17 07:59:54;;;;;;;;;;;;;;;;;;5093222;28;20548;-53
2022/09/17 08:02:22;;;;;;;;;;;;;;;;;;5093245;28;20260;-54
2022/09/17 08:04:50;;;;;;;;;;;;;;;;;;5092707;28;19939;-51
2022/09/17 08:07:17;;;;;;;;;;;;;;;;;;5093020;28;19931;-46
2022/09/17 08:09:45;;;;;;;;;;;;;;;;;;5093216;28;19928;-51
2022/09/17 08:12:12;;;;;;;;;;;;;;;;;;5091391;28;20496;-53
2022/09/17 08:14:39;;;;;;;;;;;;;;;;;;5092761;28;20307;-50
2022/09/17 08:17:07;;;;;;;;;;;;;;;;;;5092658;28;20367;-45
2022/09/17 08:19:34;;;;;;;;;;;;;;;;;;5092575;28;19931;-44
2022/09/17 08:22:02;;;;;;;;;;;;;;;;;;5092688;28;20398;-43
2022/09/17 08:24:30;;;;;;;;;;;;;;;;;;5092704;28;19928;-53
2022/09/17 08:26:57;;;;;;;;;;;;;;;;;;5084944;28;19931;-44
2022/09/17 08:29:24;;;;;;;;;;;;;;;;;;5072390;28;19932;-48
2022/09/17 08:31:51;;;;;;;;;;;;;;;;;;5092372;28;19931;-52
2022/09/17 08:34:18;;;;;;;;;;;;;;;;;;5092299;28;19928;-52
2022/09/17 08:36:46;;;;;;;;;;;;;;;;;;5092134;28;19928;-52
2022/09/17 08:39:13;;;;;;;;;;;;;;;;;;5092653;28;19928;-51
2022/09/17 08:41:43;;;;;;;;;;;;;;;;;;5091941;28;19931;-51
2022/09/17 08:44:29;;;;;;;;;;;;;;;;;;5092189;28;20070;-53
2022/09/17 08:47:11;;;;;;;;;;;;;;;;;;5092078;28;19928;-50
2022/09/17 08:49:45;;;;;;;;;;;;;;;;;;5092252;28;20412;-48
2022/09/17 08:52:31;;;;;;;;;;;;;;;;;;5092115;28;20346;-53
2022/09/17 08:55:11;;;;;;;;;;;;;;;;;;5091761;28;20014;-55
2022/09/17 08:57:57;;;;;;;;;;;;;;;;;;5092089;28;20272;-50
2022/09/17 09:00:26;;;;;;;;;;;;;;;;;;5092017;28;19938;-51
2022/09/17 09:03:12;;;;;;;;;;;;;;;;;;5090753;28;19957;-54
2022/09/17 09:05:44;;;;;;;;;;;;;;;;;;5091450;28;19928;-53
2022/09/17 09:08:15;;;;;;;;;;;;;;;;;;5091236;28;19924;-50
2022/09/17 09:10:50;;;;;;;;;;;;;;;;;;5091867;28;19928;-51
2022/09/17 09:13:21;;;;;;;;;;;;;;;;;;5091838;28;19930;-51
2022/09/17 09:15:53;;;;;;;;;;;;;;;;;;5091312;28;19924;-55
2022/09/17 09:18:22;;;;;;;;;;;;;;;;;;5091712;28;19931;-54
2022/09/17 09:20:54;;;;;;;;;;;;;;;;;;5085972;28;20435;-53
2022/09/17 09:23:34;;;;;;;;;;;;;;;;;;5071565;28;20367;-45
2022/09/17 09:26:16;;;;;;;;;;;;;;;;;;5071214;28;20373;-54
2022/09/17 09:28:58;;;;;;;;;;;;;;;;;;5070687;28;19946;-51
2022/09/17 09:31:26;;;;;;;;;;;;;;;;;;5087596;28;19982;-50
2022/09/17 09:33:54;;;;;;;;;;;;;;;;;;5082185;28;20303;-43
2022/09/17 09:36:21;;;;;;;;;;;;;;;;;;5090367;28;19924;-53
2022/09/17 09:39:00;;;;;;;;;;;;;;;;;;5091140;28;19924;-52
2022/09/17 09:41:39;;;;;;;;;;;;;;;;;;5091281;28;20334;-53
2022/09/17 09:44:10;;;;;;;;;;;;;;;;;;5090981;28;19935;-53
2022/09/17 09:46:37;;;;;;;;;;;;;;;;;;5090767;28;20371;-53
2022/09/17 09:49:17;;;;;;;;;;;;;;;;;;5091010;28;20484;-51
2022/09/17 09:51:44;;;;;;;;;;;;;;;;;;5090546;28;20203;-53
2022/09/17 09:54:23;;;;;;;;;;;;;;;;;;5090660;28;20269;-49
2022/09/17 09:57:02;;;;;;;;;;;;;;;;;;5091230;28;19931;-53
2022/09/17 09:59:29;;;;;;;;;;;;;;;;;;5090893;28;19928;-50
2022/09/17 10:01:59;;;;;;;;;;;;;;;;;;5089597;28;19928;-46
2022/09/17 10:04:27;;;;;;;;;;;;;;;;;;5090455;28;19928;-48
2022/09/17 10:07:01;;;;;;;;;;;;;;;;;;5090858;28;19928;-46
2022/09/17 10:09:31;;;;;;;;;;;;;;;;;;5090701;28;19931;-44
2022/09/17 10:12:00;;;;;;;;;;;;;;;;;;5090211;28;20003;-47
2022/09/17 10:14:28;;;;;;;;;;;;;;;;;;5090642;28;20287;-46
2022/09/17 10:17:19;;;;;;;;;;;;;;;;;;5090574;28;19928;-45
2022/09/17 10:20:08;;;;;;;;;;;;;;;;;;5088171;28;19971;-44
2022/09/17 10:22:39;;;;;;;;;;;;;;;;;;5090252;28;20338;-44
2022/09/17 10:25:17;;;;;;;;;;;;;;;;;;5090813;28;19928;-47
2022/09/17 10:27:46;;;;;;;;;;;;;;;;;;5090800;28;19931;-43
2022/09/17 10:30:17;;;;;;;;;;;;;;;;;;5089561;28;20470;-48
2022/09/17 10:33:04;;;;;;;;;;;;;;;;;;5090491;28;20018;-44
2022/09/17 10:35:32;;;;;;;;;;;;;;;;;;5090695;28;19931;-45
2022/09/17 10:37:59;;;;;;;;;;;;;;;;;;5090899;28;20041;-43
2022/09/17 10:40:27;;;;;;;;;;;;;;;;;;5090790;28;20391;-45
2022/09/17 10:43:10;;;;;;;;;;;;;;;;;;5089131;28;19951;-54
2022/09/17 10:45:39;;;;;;;;;;;;;;;;;;5094566;28;20365;-48
2022/09/17 10:48:12;;;;;;;;;;;;;;;;;;5094270;28;19924;-45
2022/09/17 10:50:39;;;;;;;;;;;;;;;;;;5094598;28;19931;-44
2022/09/17 10:53:14;;;;;;;;;;;;;;;;;;5094294;28;19924;-50
2022/09/17 10:55:49;;;;;;;;;;;;;;;;;;5094546;28;20025;-44
2022/09/17 10:58:20;;;;;;;;;;;;;;;;;;5094293;28;19983;-44
2022/09/17 11:00:54;;;;;;;;;;;;;;;;;;5093267;28;19928;-44
2022/09/17 11:03:26;;;;;;;;;;;;;;;;;;5094512;28;19928;-47
2022/09/17 11:06:14;;;;;;;;;;;;;;;;;;5094503;28;19924;-44
2022/09/17 11:08:41;;;;;;;;;;;;;;;;;;5094042;28;20110;-44
2022/09/17 11:11:23;;;;;;;;;;;;;;;;;;5094353;28;19971;-44
2022/09/17 11:14:02;;;;;;;;;;;;;;;;;;5094547;28;20405;-44
2022/09/17 11:16:44;;;;;;;;;;;;;;;;;;5094154;28;20444;-44
2022/09/17 11:19:30;;;;;;;;;;;;;;;;;;5094083;28;20340;-45
2022/09/17 11:22:23;;;;;;;;;;;;;;;;;;5094141;28;20439;-48
2022/09/17 11:25:09;;;;;;;;;;;;;;;;;;5092960;28;19924;-48
2022/09/17 11:27:57;;;;;;;;;;;;;;;;;;5095608;28;20322;-45
2022/09/17 11:30:27;;;;;;;;;;;;;;;;;;5074132;28;19931;-45
2022/09/17 11:33:03;;;;;;;;;;;;;;;;;;5095391;28;19931;-51
2022/09/17 11:35:35;;;;;;;;;;;;;;;;;;5095269;28;20388;-44
2022/09/17 11:38:05;;;;;;;;;;;;;;;;;;5094974;28;19924;-44
2022/09/17 11:40:38;;;;;;;;;;;;;;;;;;5095124;28;19973;-44
2022/09/17 11:43:15;;;;;;;;;;;;;;;;;;5095153;28;20307;-44
2022/09/17 11:45:56;;;;;;;;;;;;;;;;;;5095030;28;19950;-43
2022/09/17 11:48:45;;;;;;;;;;;;;;;;;;5094775;28;19924;-45
2022/09/17 11:51:32;;;;;;;;;;;;;;;;;;5094846;28;19971;-45
2022/09/17 11:54:00;;;;;;;;;;;;;;;;;;5094834;28;19924;-47
2022/09/17 11:56:53;;;;;;;;;;;;;;;;;;5094657;28;19928;-45
2022/09/17 11:59:39;;;;;;;;;;;;;;;;;;5093734;28;19997;-43
2022/09/17 12:02:16;;;;;;;;;;;;;;;;;;5094866;28;20406;-45
2022/09/17 12:05:05;;;;;;;;;;;;;;;;;;5094616;28;19930;-45
2022/09/17 12:07:39;;;;;;;;;;;;;;;;;;5094618;28;19931;-44
2022/09/17 12:10:36;;;;;;;;;;;;;;;;;;5094304;28;19992;-43
2022/09/17 12:13:12;;;;;;;;;;;;;;;;;;5089505;28;20405;-43
2022/09/17 12:15:42;;;;;;;;;;;;;;;;;;5094441;28;19924;-43
2022/09/17 12:18:25;;;;;;;;;;;;;;;;;;5094386;28;19943;-45
2022/09/17 12:21:01;;;;;;;;;;;;;;;;;;5094686;28;19924;-44
2022/09/17 12:23:45;;;;;;;;;;;;;;;;;;5094397;28;19931;-47
2022/09/17 12:26:28;;;;;;;;;;;;;;;;;;5094185;28;19924;-44
2022/09/17 12:28:55;;;;;;;;;;;;;;;;;;5094391;28;19931;-46
2022/09/17 12:31:31;;;;;;;;;;;;;;;;;;5094268;28;19924;-45
2022/09/17 12:34:20;;;;;;;;;;;;;;;;;;5093935;28;19931;-44
2022/09/17 12:36:56;;;;;;;;;;;;;;;;;;5090307;28;19935;-44
2022/09/17 12:39:29;;;;;;;;;;;;;;;;;;5093831;28;19963;-44
2022/09/17 12:42:15;;;;;;;;;;;;;;;;;;5093977;28;20305;-44
2022/09/17 12:44:49;;;;;;;;;;;;;;;;;;5093731;28;19924;-43
2022/09/17 12:47:29;;;;;;;;;;;;;;;;;;5093858;28;19934;-46
2022/09/17 12:49:56;;;;;;;;;;;;;;;;;;5094059;28;19924;-45
2022/09/17 12:52:26;;;;;;;;;;;;;;;;;;5093818;28;20380;-44
2022/09/17 12:54:56;;;;;;;;;;;;;;;;;;5093697;28;19931;-42
2022/09/17 12:57:42;;;;;;;;;;;;;;;;;;5093882;28;19969;-44
2022/09/17 13:00:11;;;;;;;;;;;;;;;;;;5093689;28;19924;-43
2022/09/17 13:02:50;;;;;;;;;;;;;;;;;;5093458;28;20276;-45
2022/09/17 13:05:40;;;;;;;;;;;;;;;;;;5093442;28;20392;-45
2022/09/17 13:08:11;;;;;;;;;;;;;;;;;;5092693;28;19950;-43
2022/09/17 13:10:54;;;;;;;;;;;;;;;;;;5093478;28;19985;-43
2022/09/17 13:13:31;;;;;;;;;;;;;;;;;;5093505;28;19978;-44
2022/09/17 13:16:17;;;;;;;;;;;;;;;;;;5093017;28;20367;-44
2022/09/17 13:18:46;;;;;;;;;;;;;;;;;;5093365;28;19930;-43
2022/09/17 13:21:36;;;;;;;;;;;;;;;;;;5093387;28;19924;-44
2022/09/17 13:24:19;;;;;;;;;;;;;;;;;;5093346;28;19967;-43
2022/09/17 13:26:46;;;;;;;;;;;;;;;;;;5093326;28;20018;-45
2022/09/17 13:29:34;;;;;;;;;;;;;;;;;;5093171;28;19978;-45
2022/09/17 13:32:01;;;;;;;;;;;;;;;;;;5073032;28;19928;-44
2022/09/17 13:34:31;;;;;;;;;;;;;;;;;;5072848;28;19928;-43
2022/09/17 13:37:00;;;;;;;;;;;;;;;;;;5072679;28;20291;-43
2022/09/17 13:39:41;;;;;;;;;;;;;;;;;;5072922;28;19964;-45
2022/09/17 13:42:12;;;;;;;;;;;;;;;;;;5071084;28;19928;-46
2022/09/17 13:44:41;;;;;;;;;;;;;;;;;;5072740;28;19932;-46
2022/09/17 13:47:11;;;;;;;;;;;;;;;;;;5072705;28;19925;-46
2022/09/17 13:49:59;;;;;;;;;;;;;;;;;;5072601;28;19973;-44
2022/09/17 13:52:58;;;;;;;;;;;;;;;;;;5072581;28;19928;-44
2022/09/17 13:55:31;;;;;;;;;;;;;;;;;;5071205;28;20365;-44
2022/09/17 13:58:00;;;;;;;;;;;;;;;;;;5072178;28;19939;-47
2022/09/17 14:00:46;;;;;;;;;;;;;;;;;;5091529;28;19927;-46
2022/09/17 14:03:39;;;;;;;;;;;;;;;;;;5091865;28;19932;-45
2022/09/17 14:06:07;;;;;;;;;;;;;;;;;;5092247;28;20469;-44
2022/09/17 14:08:44;;;;;;;;;;;;;;;;;;5092849;28;19928;-45
2022/09/17 14:11:27;;;;;;;;;;;;;;;;;;5092429;28;19924;-45
2022/09/17 14:14:03;;;;;;;;;;;;;;;;;;5092347;28;20355;-44
2022/09/17 14:16:36;;;;;;;;;;;;;;;;;;5092524;28;19928;-46
2022/09/17 14:19:17;;;;;;;;;;;;;;;;;;5096045;28;19931;-44
2022/09/17 14:21:59;;;;;;;;;;;;;;;;;;5112487;28;19958;-46
2022/09/17 14:24:32;;;;;;;;;;;;;;;;;;5096567;28;20022;-45
2022/09/17 14:27:06;;;;;;;;;;;;;;;;;;5095272;28;19924;-47
2022/09/17 14:29:40;;;;;;;;;;;;;;;;;;5096690;28;19924;-45
2022/09/17 14:32:14;;;;;;;;;;;;;;;;;;5095828;28;19928;-44
2022/09/17 14:34:49;;;;;;;;;;;;;;;;;;5096208;28;19934;-44
2022/09/17 14:37:18;;;;;;;;;;;;;;;;;;5096624;28;19924;-44
2022/09/17 14:39:47;;;;;;;;;;;;;;;;;;5096622;28;19971;-44
2022/09/17 14:42:20;;;;;;;;;;;;;;;;;;5096363;28;19924;-44
2022/09/17 14:44:50;;;;;;;;;;;;;;;;;;5096494;28;19969;-45
2022/09/17 14:47:19;;;;;;;;;;;;;;;;;;5096015;28;19935;-44
2022/09/17 14:49:46;;;;;;;;;;;;;;;;;;5096314;28;19931;-46
2022/09/17 14:52:24;;;;;;;;;;;;;;;;;;5089406;28;19932;-46
2022/09/17 14:55:10;;;;;;;;;;;;;;;;;;5086207;28;19925;-45
2022/09/17 14:57:37;;;;;;;;;;;;;;;;;;5086223;28;19930;-45
2022/09/17 15:00:06;;;;;;;;;;;;;;;;;;5078070;28;19978;-44
2022/09/17 15:02:40;;;;;;;;;;;;;;;;;;5074002;28;19924;-44
2022/09/17 15:05:30;;;;;;;;;;;;;;;;;;5073540;28;19978;-43
2022/09/17 15:08:10;;;;;;;;;;;;;;;;;;5073600;28;19924;-44
2022/09/17 15:10:48;;;;;;;;;;;;;;;;;;5073954;28;19925;-45
2022/09/17 15:13:37;;;;;;;;;;;;;;;;;;5074083;28;19925;-43
2022/09/17 15:16:11;;;;;;;;;;;;;;;;;;5073595;28;19932;-44
2022/09/17 15:18:40;;;;;;;;;;;;;;;;;;5073330;28;19932;-44
2022/09/17 15:21:26;;;;;;;;;;;;;;;;;;5073168;28;19924;-44
2022/09/17 15:23:56;;;;;;;;;;;;;;;;;;5073331;28;20423;-48
2022/09/17 15:26:25;;;;;;;;;;;;;;;;;;5073203;28;19924;-44
2022/09/17 15:28:54;;;;;;;;;;;;;;;;;;5072789;28;20392;-45
2022/09/17 15:31:22;;;;;;;;;;;;;;;;;;5089844;28;19924;-44
2022/09/17 15:33:49;;;;;;;;;;;;;;;;;;5095438;28;19928;-43
2022/09/17 15:36:22;;;;;;;;;;;;;;;;;;5094987;28;20011;-45
2022/09/17 15:38:50;;;;;;;;;;;;;;;;;;5095090;28;19928;-45
2022/09/17 15:41:28;;;;;;;;;;;;;;;;;;5094862;28;19974;-43
2022/09/17 15:44:10;;;;;;;;;;;;;;;;;;5094968;28;19986;-44
2022/09/17 15:46:58;;;;;;;;;;;;;;;;;;5095236;28;19924;-44
2022/09/17 15:49:36;;;;;;;;;;;;;;;;;;5095147;28;19978;-44
2022/09/17 15:52:22;;;;;;;;;;;;;;;;;;5094843;28;19923;-45
2022/09/17 15:54:49;;;;;;;;;;;;;;;;;;5094876;28;19924;-44
2022/09/17 15:57:16;;;;;;;;;;;;;;;;;;5094852;28;19931;-53
2022/09/17 15:59:44;;;;;;;;;;;;;;;;;;5092906;28;20338;-44
2022/09/17 16:02:31;;;;;;;;;;;;;;;;;;5094698;28;19924;-43
2022/09/17 16:05:17;;;;;;;;;;;;;;;;;;5094919;28;20298;-46
2022/09/17 16:07:44;;;;;;;;;;;;;;;;;;5094714;28;19931;-46
2022/09/17 16:10:12;;;;;;;;;;;;;;;;;;5094398;28;19928;-45
2022/09/17 16:12:40;;;;;;;;;;;;;;;;;;5093442;28;19971;-50
2022/09/17 16:15:08;;;;;;;;;;;;;;;;;;5094225;28;19924;-43
2022/09/17 16:17:35;;;;;;;;;;;;;;;;;;5094717;28;20003;-43
2022/09/17 16:20:08;;;;;;;;;;;;;;;;;;5094683;28;19938;-43
2022/09/17 16:22:35;;;;;;;;;;;;;;;;;;5094529;28;20310;-43
2022/09/17 16:25:03;;;;;;;;;;;;;;;;;;5094643;28;19946;-43
2022/09/17 16:27:32;;;;;;;;;;;;;;;;;;5083127;28;19929;-43
2022/09/17 16:30:08;;;;;;;;;;;;;;;;;;5079202;28;19928;-46
2022/09/17 16:32:38;;;;;;;;;;;;;;;;;;5094087;28;20341;-45
2022/09/17 16:35:05;;;;;;;;;;;;;;;;;;5094373;28;19928;-44
2022/09/17 16:37:33;;;;;;;;;;;;;;;;;;5094238;28;19928;-46
2022/09/17 16:40:00;;;;;;;;;;;;;;;;;;5094136;28;19932;-44
2022/09/17 16:42:31;;;;;;;;;;;;;;;;;;5094004;28;19966;-46
2022/09/17 16:44:59;;;;;;;;;;;;;;;;;;5093975;28;19928;-46
2022/09/17 16:47:33;;;;;;;;;;;;;;;;;;5093892;28;20338;-43
2022/09/17 16:50:00;;;;;;;;;;;;;;;;;;5093782;28;20033;-43
2022/09/17 16:52:27;;;;;;;;;;;;;;;;;;5093886;28;20222;-42
2022/09/17 16:54:54;;;;;;;;;;;;;;;;;;5093677;28;19924;-44
2022/09/17 16:57:22;;;;;;;;;;;;;;;;;;5093677;28;19924;-42
2022/09/17 16:59:49;;;;;;;;;;;;;;;;;;5093718;28;19935;-43
2022/09/17 17:02:16;;;;;;;;;;;;;;;;;;5093491;28;19960;-43
2022/09/17 17:04:43;;;;;;;;;;;;;;;;;;5093549;28;19924;-53
2022/09/17 17:07:11;;;;;;;;;;;;;;;;;;5093567;28;20338;-43
2022/09/17 17:09:38;;;;;;;;;;;;;;;;;;5093742;28;19924;-45
2022/09/17 17:12:05;;;;;;;;;;;;;;;;;;5093750;28;19924;-44
2022/09/17 17:14:33;;;;;;;;;;;;;;;;;;5093592;28;20006;-46
2022/09/17 17:17:00;;;;;;;;;;;;;;;;;;5093268;28;20002;-43
2022/09/17 17:19:29;;;;;;;;;;;;;;;;;;5093312;28;19925;-43
2022/09/17 17:21:56;;;;;;;;;;;;;;;;;;5093387;28;19954;-47